METAR stanice u blizini

 

LYBE - Beograd / Surčin, Srbija
Ažurirano: 29/11/2021 00:00
Slaba kiša, Pretežno oblačno
Slaba kiša, Pretežno oblačno
 Pravac vetra Z
Vetar: Z 20 km/h
Temperatura: 7°C
Osećaj hladnoće: 4°C
Tačka rose: 6°C
Vlažnost: 93%
Pritisak: 995 hPa
Pregled: Light Rain
Oblaci: Mostly Cloudy
Vidljivost: 10 km
Cloud details: Partly Cloudy 122 m
Mostly Cloudy 1006 m
2021/11/28 23:00 LYBE 282300Z 27011KT 9999 -RA SCT004 BKN033 07/06 Q0995 NOSIG
LYBT - Beograd / Batajnica, Srbija
Ažurirano: 29/11/2021 00:00
Padavine, Pretežno oblačno
Padavine, Pretežno oblačno
 Pravac vetra ZJZ
Vetar: ZJZ 13 km/h
Temperatura: 7°C
Osećaj hladnoće: 5°C
Tačka rose: 7°C
Vlažnost: 100%
Pritisak: 995 hPa
Pregled: Padavine
Oblaci: Mostly Cloudy
Vidljivost: 7 km
Cloud details: Partly Cloudy 152 m
Mostly Cloudy 823 m
2021/11/28 23:00 LYBT 282300Z 24007KT 7000 RA SCT005 BKN027 07/07 Q0995 NOSIG
LYVR - Vršac, Srbija
Ažurirano: 29/11/2021 00:00
Oblačno
Oblačno
 Pravac vetra varies
Vetar: varies 2 km/h
Temperatura: 8°C
Tačka rose: 8°C
Vlažnost: 100%
Pritisak: 994 hPa
Oblaci: Oblačno
Vidljivost: 10 km
Cloud details: Oblačno 152 m
2021/11/28 23:00 LYVR 282300Z AUTO VRB01KT 9999 OVC005/// 08/08 Q0994
 
LYKV - Lađevci, Srbija
Ažurirano: 29/11/2021 00:00
Partly Cloudy
Partly Cloudy
 Pravac vetra JI
Vetar: JI 17 km/h
Temperatura: 11°C
Tačka rose: 5°C
Vlažnost: 67%
Pritisak: 993 hPa
Oblaci: Partly Cloudy
Vidljivost: 10 km
Cloud details: Partly Cloudy 1219 m
2021/11/28 23:00 LYKV 282300Z 14009KT 9999 SCT040 11/05 Q0993 NOSIG
LYNI - Niš, Srbija
Ažurirano: 29/11/2021 00:00
Vedro
Vedro
 Pravac vetra SI
Vetar: SI 6 km/h
Temperatura: 12°C
Tačka rose: 7°C
Vlažnost: 72%
Pritisak: 994 hPa
Pregled: Vedro
Vidljivost: greater than 10 km
2021/11/28 23:00 LYNI 282300Z 05003KT 350V120 CAVOK 12/07 Q0994 NOSIG
BKPR - Priština, Srbija
Ažurirano: 29/11/2021 00:30
Slaba kiša, Pretežno oblačno
Slaba kiša, Pretežno oblačno
 Pravac vetra JJI
Vetar: JJI 15 km/h
Temperatura: 7°C
Osećaj hladnoće: 4°C
Tačka rose: 5°C
Vlažnost: 87%
Pritisak: 995 hPa
Pregled: Light Rain
Oblaci: Mostly Cloudy
Vidljivost: 10 km
Cloud details: Partly Cloudy 610 m
Mostly Cloudy 1524 m
2021/11/28 23:30 BKPR 282330Z 16008KT 9999 -RA SCT020 BKN050 07/05 Q0995 NOSIG
 
LHPP - Pecs / Pogany, Hungary
Ažurirano: 28/11/2021 23:50
Slaba kiša, Oblačno
Slaba kiša, Oblačno
 Pravac vetra SSI
Vetar: SSI 7 km/h
Temperatura: 5°C
Osećaj hladnoće: 3°C
Tačka rose: 5°C
Vlažnost: 100%
Pritisak: 994 hPa
Pregled: Light Rain
Oblaci: Oblačno
Vidljivost: 10 km
Cloud details: Oblačno 122 m
2021/11/28 22:50 LHPP 282250Z AUTO 02004KT 9999 -RA OVC004 05/05 Q0994
LHUD - Szeged, Hungary
Ažurirano: 04/07/2019 01:45
NOT Current
Vedro
Vedro
 Pravac vetra S
Vetar: S 7 km/h
Temperatura: 18°C
Tačka rose: 13°C
Vlažnost: 73%
Pritisak: 1019 hPa
Pregled: Vedro
Vidljivost: greater than 10 km
2019/07/03 23:45 LHUD 032345Z 35004KT CAVOK 18/13 Q1019
LRTR - Timisoara, Romania
Ažurirano: 29/11/2021 00:00
Slaba kiša, Pretežno oblačno
Slaba kiša, Pretežno oblačno
 Pravac vetra SZ
Vetar: SZ 19 km/h
Temperatura: 8°C
Osećaj hladnoće: 4°C
Tačka rose: 8°C
Vlažnost: 100%
Pritisak: 993 hPa
Pregled: Light Rain
Oblaci: Mostly Cloudy
Vidljivost: 10 km
Cloud details: Few Clouds 183 m
Partly Cloudy 701 m
Mostly Cloudy 975 m
2021/11/28 23:00 LRTR 282300Z 32010KT 9999 -RA FEW006 SCT023 BKN032 08/08 Q0993
 
LRCV - Craiova, Romania
Ažurirano: 29/11/2021 00:00
Slaba kiša, Delimično oblačno
Slaba kiša, Delimično oblačno
 Pravac vetra ISI
Vetar: ISI 11 km/h
Temperatura: 10°C
Osećaj hladnoće: 8°C
Tačka rose: 7°C
Vlažnost: 82%
Pritisak: 995 hPa
Pregled: Light Rain
Oblaci: Partly Cloudy
Vidljivost: 10 km
2021/11/28 23:00 LRCV 282300Z 07006KT 9999 -RA NSC 10/07 Q0995
LBSF - Sofia, Bulgaria
Ažurirano: 29/11/2021 00:00
Oblačno
Oblačno
 Pravac vetra Z
Vetar: Z 9 km/h
Temperatura: 8°C
Osećaj hladnoće: 6°C
Tačka rose: 7°C
Vlažnost: 93%
Pritisak: 996 hPa
Oblaci: Oblačno
Vidljivost: 10 km
Cloud details: Few Clouds 1463 m
Oblačno 1737 m
2021/11/28 23:00 LBSF 282300Z 28005KT 9999 FEW048 OVC057 08/07 Q0996 TEMPO 5000 RA
LWSK - Skoplje, Makedonija
Ažurirano: 29/11/2021 00:00
Oblačno
Oblačno
 Pravac vetra calm
Vetar: Tišina
Temperatura: 8°C
Tačka rose: 8°C
Vlažnost: 100%
Pritisak: 997 hPa
Oblaci: Oblačno
Vidljivost: 10 km
Cloud details: Partly Cloudy 518 m
Oblačno 1524 m
2021/11/28 23:00 LWSK 282300Z 00000KT 9999 SCT017 OVC050 08/08 Q0997 NOSIG
 
LYPG - Podgorica, Crna Gora
Ažurirano: 29/11/2021 00:00
Slaba kiša, Pretežno oblačno
Slaba kiša, Pretežno oblačno
 Pravac vetra JJZ
Vetar: JJZ 6 km/h
Temperatura: 13°C
Tačka rose: 9°C
Vlažnost: 77%
Pritisak: 996 hPa
Pregled: Light Rain
Oblaci: Mostly Cloudy
Vidljivost: 10 km
Cloud details: Few Clouds 914 m
Partly Cloudy 1219 m
Mostly Cloudy 2134 m
2021/11/28 23:00 LYPG 282300Z 20003KT 160V240 9999 -RA FEW030 SCT040 BKN070 13/09 Q0996 NOSIG
LQSA - Sarajevo, Bosna i Hercegovina
Ažurirano: 29/11/2021 00:00
Padavine, Oblačno
Padavine, Oblačno
 Pravac vetra SSZ
Vetar: SSZ 6 km/h
Temperatura: 5°C
Tačka rose: 5°C
Vlažnost: 100%
Pritisak: 995 hPa
Pregled: Padavine
Oblaci: Oblačno
Vidljivost: 7 km
Cloud details: Few Clouds 305 m
Mostly Cloudy 610 m
Oblačno 1219 m
2021/11/28 23:00 LQSA 282300Z 33003KT 300V030 7000 RA FEW010 BKN020 OVC040 05/05 Q0995
LDOS - Osijek, Hrvatksa
Ažurirano: 29/11/2021 00:00
Slaba kiša, Pretežno oblačno
Slaba kiša, Pretežno oblačno
 Pravac vetra JZ
Vetar: JZ 13 km/h
Temperatura: 6°C
Osećaj hladnoće: 3°C
Tačka rose: 5°C
Vlažnost: 93%
Pritisak: 994 hPa
Pregled: Light Rain
Oblaci: Mostly Cloudy
Vidljivost: 10 km
Cloud details: Partly Cloudy 305 m
Mostly Cloudy 823 m
2021/11/28 23:00 LDOS 282300Z 22007KT 9999 -RA SCT010 BKN027 06/05 Q0994